createdAt,value
2023-10-10T00:02:44.303Z,100122.19
2023-10-10T00:05:37.826Z,100114.13
2023-10-10T00:08:34.925Z,100110.13
2023-10-10T00:11:27.595Z,100118.88
2023-10-10T00:14:20.517Z,100112.22
2023-10-10T00:17:11.763Z,100123.31
2023-10-10T00:20:17.453Z,100108.44
2023-10-10T00:23:12.239Z,100112.53
2023-10-10T00:26:02.529Z,100106.75
2023-10-10T00:28:57.662Z,100099.84
2023-10-10T00:31:59.703Z,100091.28
2023-10-10T00:34:55.096Z,100084.69
2023-10-10T00:37:46.478Z,100080.25
2023-10-10T00:40:40.674Z,100080.81
2023-10-10T00:43:32.477Z,100068.88
2023-10-10T00:46:25.997Z,100060.59
2023-10-10T00:49:18.442Z,100058.09
2023-10-10T00:52:14.741Z,100056.38
2023-10-10T00:55:06.352Z,100052.59
2023-10-10T00:58:00.438Z,100050.97
2023-10-10T01:00:54.252Z,100049.28
2023-10-10T01:03:50.825Z,100047.69
2023-10-10T01:06:41.445Z,100053.25
2023-10-10T01:09:35.396Z,100057.81
2023-10-10T01:12:26.977Z,100053.25
2023-10-10T01:15:26.613Z,100060.41
2023-10-10T01:18:17.267Z,100061.53
2023-10-10T01:21:10.558Z,100056.03
2023-10-10T01:24:13.061Z,100062.69
2023-10-10T01:27:18.317Z,100069.84
2023-10-10T01:30:19.285Z,100063.75
2023-10-10T01:33:11.232Z,100073.75
2023-10-10T01:36:04.418Z,100080.91
2023-10-10T01:39:21.230Z,100082.56
2023-10-10T01:42:14.001Z,100099.41
2023-10-10T01:45:09.720Z,100106.84
2023-10-10T01:48:04.449Z,100114.25
2023-10-10T01:50:55.430Z,100120.88
2023-10-10T01:53:45.776Z,100127.50
2023-10-10T01:56:39.811Z,100132.72
2023-10-10T01:59:37.057Z,100136.31
2023-10-10T02:02:28.706Z,100138.81
2023-10-10T02:05:30.930Z,100135.47
2023-10-10T02:08:23.684Z,100142.38
2023-10-10T02:11:15.358Z,100151.44
2023-10-10T02:14:12.560Z,100162.50
2023-10-10T02:17:10.647Z,100149.00
2023-10-10T02:20:19.958Z,100157.53
2023-10-10T02:23:25.659Z,100151.75
2023-10-10T02:26:25.559Z,100145.41
2023-10-10T02:29:22.413Z,100159.44
2023-10-10T02:32:14.304Z,100161.97
2023-10-10T02:35:27.115Z,100158.91
2023-10-10T02:38:18.339Z,100166.03
2023-10-10T02:41:23.964Z,100173.25
2023-10-10T02:44:27.482Z,100179.03
2023-10-10T02:47:32.559Z,100179.59
2023-10-10T02:50:35.714Z,100178.50
2023-10-10T02:53:26.096Z,100177.38
2023-10-10T02:56:21.461Z,100182.09
2023-10-10T02:59:12.316Z,100173.50
2023-10-10T03:02:10.476Z,100185.94
2023-10-10T03:05:16.862Z,100171.88
2023-10-10T03:08:13.877Z,100169.69
2023-10-10T03:11:16.055Z,100155.38
2023-10-10T03:14:09.218Z,100148.16
2023-10-10T03:17:11.127Z,100139.59
2023-10-10T03:20:14.741Z,100118.97
2023-10-10T03:23:24.964Z,100109.03
2023-10-10T03:26:21.081Z,100124.75
2023-10-10T03:29:13.117Z,100128.88
2023-10-10T03:32:17.636Z,100125.00
2023-10-10T03:35:22.012Z,100136.59
2023-10-10T03:38:32.476Z,100131.06
2023-10-10T03:41:42.287Z,100129.66
2023-10-10T03:44:45.019Z,100117.53
2023-10-10T03:48:02.501Z,100105.34
2023-10-10T03:51:07.860Z,100085.22
2023-10-10T03:54:12.609Z,100079.91
2023-10-10T03:57:15.838Z,100071.38
2023-10-10T04:00:19.090Z,100061.88
2023-10-10T04:03:22.223Z,100058.19
2023-10-10T04:06:27.754Z,100063.03
2023-10-10T04:09:39.030Z,100049.94
2023-10-10T04:12:41.737Z,100031.53
2023-10-10T04:15:47.599Z,100007.19
2023-10-10T04:18:59.780Z,100007.66
2023-10-10T04:22:05.111Z,100002.78
2023-10-10T04:25:07.915Z,100007.91
2023-10-10T04:28:10.623Z,100013.44
2023-10-10T04:31:13.380Z,100028.88
2023-10-10T04:34:16.235Z,100027.47
2023-10-10T04:37:21.593Z,100021.91
2023-10-10T04:40:25.113Z,100018.06
2023-10-10T04:43:27.799Z,100012.34
2023-10-10T04:46:31.328Z,100008.72
2023-10-10T04:49:34.126Z,100020.66
2023-10-10T04:52:39.389Z,100009.53
2023-10-10T04:55:42.099Z,100010.97
2023-10-10T04:58:44.837Z,100015.47
2023-10-10T05:01:56.006Z,100002.13
2023-10-10T05:04:58.702Z,100026.91
2023-10-10T05:08:06.450Z,100024.41
2023-10-10T05:11:09.417Z,100014.44
2023-10-10T05:14:12.138Z,100019.41
2023-10-10T05:17:14.965Z,100011.97
2023-10-10T05:20:20.167Z,100002.94
2023-10-10T05:23:25.579Z,99999.28
2023-10-10T05:26:20.561Z,99996.66
2023-10-10T05:29:12.001Z,100009.63
2023-10-10T05:32:09.645Z,100005.75
2023-10-10T05:35:01.647Z,100004.38
2023-10-10T05:37:53.361Z,100001.75
2023-10-10T05:40:48.678Z,100013.97
2023-10-10T05:43:38.973Z,100012.78
2023-10-10T05:46:31.935Z,100020.66
2023-10-10T05:49:22.766Z,100016.56
2023-10-10T05:52:13.579Z,100005.03
2023-10-10T05:55:04.073Z,100005.06
2023-10-10T05:57:57.322Z,100018.66
2023-10-10T06:00:50.891Z,100015.16
2023-10-10T06:03:41.445Z,100015.03
2023-10-10T06:06:33.221Z,100010.72
2023-10-10T06:09:28.119Z,99998.78
2023-10-10T06:12:18.358Z,100009.44
2023-10-10T06:15:18.235Z,100031.66
2023-10-10T06:18:13.961Z,100032.41
2023-10-10T06:21:10.278Z,100027.75
2023-10-10T06:24:02.078Z,100024.56
2023-10-10T06:26:52.374Z,100018.19
2023-10-10T06:29:43.370Z,100024.59
2023-10-10T06:32:37.248Z,100014.84
2023-10-10T06:35:37.477Z,100005.00
2023-10-10T06:38:27.920Z,100008.66
2023-10-10T06:41:23.781Z,99996.66
2023-10-10T06:44:15.445Z,99986.06
2023-10-10T06:47:13.776Z,99988.19
2023-10-10T06:50:12.458Z,100010.16
2023-10-10T06:53:03.141Z,100019.78
2023-10-10T06:55:53.768Z,100025.38
2023-10-10T06:58:44.739Z,100030.72
2023-10-10T07:01:34.951Z,100016.34
2023-10-10T07:04:28.835Z,100030.81
2023-10-10T07:07:22.902Z,100014.88
2023-10-10T07:10:25.963Z,100012.41
2023-10-10T07:13:20.318Z,100013.41
2023-10-10T07:16:10.592Z,99996.88
2023-10-10T07:19:20.254Z,100002.97
2023-10-10T07:22:09.691Z,99997.50
2023-10-10T07:25:08.615Z,99993.38
2023-10-10T07:28:02.216Z,99980.88
2023-10-10T07:30:52.460Z,99995.38
2023-10-10T07:33:44.961Z,99999.94
2023-10-10T07:36:35.406Z,100002.78
2023-10-10T07:39:37.931Z,100004.81
2023-10-10T07:42:32.410Z,100011.28
2023-10-10T07:45:34.784Z,100001.72
2023-10-10T07:48:37.793Z,99995.66
2023-10-10T07:51:36.265Z,99996.81
2023-10-10T07:54:40.888Z,99993.03
2023-10-10T07:57:54.174Z,99980.19
2023-10-10T08:00:46.084Z,99978.47
2023-10-10T08:03:36.394Z,99978.28
2023-10-10T08:06:27.332Z,99981.25
2023-10-10T08:09:24.783Z,99986.03
2023-10-10T08:12:15.108Z,99978.06
2023-10-10T08:15:20.723Z,99965.09
2023-10-10T08:18:11.253Z,99947.56
2023-10-10T08:21:12.208Z,99938.84
2023-10-10T08:24:02.435Z,99937.66
2023-10-10T08:26:53.120Z,99920.44
2023-10-10T08:29:43.822Z,99917.22
2023-10-10T08:32:36.800Z,99929.78
2023-10-10T08:35:31.227Z,99932.88
2023-10-10T08:38:23.259Z,99915.38
2023-10-10T08:41:13.837Z,99916.59
2023-10-10T08:44:05.432Z,99924.50
2023-10-10T08:47:00.949Z,99926.50
2023-10-10T08:49:53.762Z,99926.53
2023-10-10T08:52:44.001Z,99913.13
2023-10-10T08:55:37.986Z,99916.91
2023-10-10T08:58:32.784Z,99907.59
2023-10-10T09:01:23.570Z,99915.22
2023-10-10T09:04:20.706Z,99926.34
2023-10-10T09:07:21.682Z,99923.53
2023-10-10T09:10:15.378Z,99935.66
2023-10-10T09:13:08.384Z,99934.06
2023-10-10T09:15:59.327Z,99932.03
2023-10-10T09:19:10.381Z,99933.59
2023-10-10T09:22:03.423Z,99928.03
2023-10-10T09:24:57.469Z,99929.22
2023-10-10T09:28:00.763Z,99935.34
2023-10-10T09:31:00.942Z,99937.34
2023-10-10T09:33:55.650Z,99919.28
2023-10-10T09:36:54.937Z,99925.69
2023-10-10T09:39:56.493Z,99919.69
2023-10-10T09:43:13.356Z,99911.75
2023-10-10T09:46:12.500Z,99923.22
2023-10-10T09:49:15.529Z,99935.88
2023-10-10T09:52:18.549Z,99932.25
2023-10-10T09:55:31.105Z,99932.56
2023-10-10T09:58:29.387Z,99928.19
2023-10-10T10:01:25.120Z,99923.53
2023-10-10T10:04:19.687Z,99914.50
2023-10-10T10:07:25.246Z,99944.47
2023-10-10T10:10:49.739Z,99939.53
2023-10-10T10:14:21.951Z,99942.94
2023-10-10T10:17:20.126Z,99931.50
2023-10-10T10:20:21.889Z,99934.66
2023-10-10T10:23:14.293Z,99940.50
2023-10-10T10:26:12.171Z,99935.44
2023-10-10T10:29:17.355Z,99929.22
2023-10-10T10:32:12.032Z,99917.91
2023-10-10T10:35:09.916Z,99924.22
2023-10-10T10:38:01.680Z,99912.94
2023-10-10T10:40:50.362Z,99914.16
2023-10-10T10:43:44.039Z,99922.50
2023-10-10T10:46:49.633Z,99932.84
2023-10-10T10:49:42.092Z,99928.19
2023-10-10T10:52:45.496Z,99909.13
2023-10-10T10:55:41.267Z,99901.22
2023-10-10T10:58:28.966Z,99911.56
2023-10-10T11:01:21.528Z,99894.97
2023-10-10T11:04:25.836Z,99907.28
2023-10-10T11:07:28.087Z,99889.44
2023-10-10T11:10:36.972Z,99887.75
2023-10-10T11:13:29.530Z,99874.78
2023-10-10T11:16:19.869Z,99862.84
2023-10-10T11:19:27.048Z,99872.66
2023-10-10T11:22:39.695Z,99870.34
2023-10-10T11:25:42.854Z,99867.97
2023-10-10T11:28:38.924Z,99868.50
2023-10-10T11:31:30.796Z,99873.25
2023-10-10T11:34:43.651Z,99865.53
2023-10-10T11:37:44.001Z,99872.59
2023-10-10T11:40:35.829Z,99872.50
2023-10-10T11:43:28.890Z,99858.59
2023-10-10T11:46:22.379Z,99859.38
2023-10-10T11:49:18.329Z,99856.94
2023-10-10T11:52:21.185Z,99856.34
2023-10-10T11:55:15.530Z,99835.06
2023-10-10T11:58:09.610Z,99838.72
2023-10-10T12:01:05.684Z,99834.47
2023-10-10T12:04:07.058Z,99847.81
2023-10-10T12:07:01.377Z,99818.31
2023-10-10T12:09:55.966Z,99825.84
2023-10-10T12:12:50.432Z,99813.56
2023-10-10T12:15:41.771Z,99817.06
2023-10-10T12:18:34.262Z,99800.38
2023-10-10T12:21:25.467Z,99797.75
2023-10-10T12:24:16.060Z,99793.47
2023-10-10T12:27:08.991Z,99788.44
2023-10-10T12:30:01.941Z,99772.81
2023-10-10T12:32:53.225Z,99775.69
2023-10-10T12:35:45.316Z,99773.56
2023-10-10T12:38:35.749Z,99768.97
2023-10-10T12:41:26.044Z,99780.25
2023-10-10T12:44:16.651Z,99795.38
2023-10-10T12:47:11.508Z,99786.63
2023-10-10T12:50:05.719Z,99779.78
2023-10-10T12:53:08.797Z,99782.97
2023-10-10T12:56:02.777Z,99786.06
2023-10-10T12:59:03.041Z,99771.88
2023-10-10T13:02:01.823Z,99757.63
2023-10-10T13:04:55.907Z,99759.59
2023-10-10T13:07:46.466Z,99751.09
2023-10-10T13:10:38.881Z,99756.78
2023-10-10T13:13:32.877Z,99748.81
2023-10-10T13:16:26.942Z,99747.16
2023-10-10T13:19:22.154Z,99750.38
2023-10-10T13:22:22.512Z,99746.84
2023-10-10T13:25:13.581Z,99738.34
2023-10-10T13:28:10.501Z,99737.66
2023-10-10T13:31:03.601Z,99722.94
2023-10-10T13:33:54.617Z,99722.41
2023-10-10T13:36:44.809Z,99713.72
2023-10-10T13:39:45.210Z,99706.03
2023-10-10T13:42:36.077Z,99701.81
2023-10-10T13:45:29.567Z,99703.91
2023-10-10T13:48:20.355Z,99694.34
2023-10-10T13:51:11.423Z,99686.22
2023-10-10T13:54:01.734Z,99684.72
2023-10-10T13:56:55.368Z,99679.41
2023-10-10T13:59:50.558Z,99684.59
2023-10-10T14:02:41.180Z,99676.56
2023-10-10T14:05:34.954Z,99677.81
2023-10-10T14:08:28.195Z,99673.06
2023-10-10T14:11:22.354Z,99673.38
2023-10-10T14:14:15.506Z,99677.81
2023-10-10T14:17:08.974Z,99662.69
2023-10-10T14:20:00.749Z,99665.69
2023-10-10T14:22:56.089Z,99669.44
2023-10-10T14:25:49.048Z,99666.72
2023-10-10T14:28:39.249Z,99662.78
2023-10-10T14:31:32.561Z,99663.06
2023-10-10T14:34:26.144Z,99663.28
2023-10-10T14:37:35.997Z,99682.44
2023-10-10T14:40:27.818Z,99668.22
2023-10-10T14:43:18.061Z,99660.53
2023-10-10T14:46:10.488Z,99668.69
2023-10-10T14:49:18.484Z,99668.41
2023-10-10T14:52:09.167Z,99678.38
2023-10-10T14:55:06.463Z,99669.84
2023-10-10T14:57:58.315Z,99678.97
2023-10-10T15:00:49.966Z,99683.41
2023-10-10T15:03:42.700Z,99684.19
2023-10-10T15:06:36.557Z,99686.50
2023-10-10T15:09:28.201Z,99692.75
2023-10-10T15:12:18.577Z,99680.00
2023-10-10T15:15:10.557Z,99674.41
2023-10-10T15:18:00.900Z,99676.72
2023-10-10T15:20:52.439Z,99674.56
2023-10-10T15:23:47.928Z,99681.78
2023-10-10T15:26:38.264Z,99683.69
2023-10-10T15:29:29.005Z,99686.03
2023-10-10T15:32:19.353Z,99681.66
2023-10-10T15:35:10.754Z,99675.09
2023-10-10T15:38:01.008Z,99671.44
2023-10-10T15:40:53.871Z,99695.66
2023-10-10T15:43:48.237Z,99706.59
2023-10-10T15:46:43.915Z,99710.28
2023-10-10T15:49:36.917Z,99704.25
2023-10-10T15:52:28.224Z,99696.97
2023-10-10T15:55:20.869Z,99691.63
2023-10-10T15:58:13.715Z,99698.88
2023-10-10T16:01:05.868Z,99695.53
2023-10-10T16:03:56.705Z,99704.44
2023-10-10T16:06:48.456Z,99701.91
2023-10-10T16:09:38.770Z,99680.50
2023-10-10T16:12:29.991Z,99678.19
2023-10-10T16:15:30.316Z,99669.00
2023-10-10T16:18:22.054Z,99663.00
2023-10-10T16:21:12.418Z,99685.19
2023-10-10T16:24:02.711Z,99676.41
2023-10-10T16:26:59.707Z,99663.31
2023-10-10T16:29:49.996Z,99651.34
2023-10-10T16:32:44.702Z,99657.91
2023-10-10T16:35:35.213Z,99661.66
2023-10-10T16:38:25.731Z,99677.06
2023-10-10T16:41:16.055Z,99690.31
2023-10-10T16:44:06.640Z,99677.03
2023-10-10T16:46:57.454Z,99670.88
2023-10-10T16:49:51.235Z,99670.09
2023-10-10T16:52:42.370Z,99666.34
2023-10-10T16:55:34.237Z,99683.00
2023-10-10T16:58:24.481Z,99676.75
2023-10-10T17:01:17.235Z,99689.56
2023-10-10T17:04:08.568Z,99689.91
2023-10-10T17:07:01.510Z,99677.19
2023-10-10T17:09:52.416Z,99669.25
2023-10-10T17:12:43.553Z,99678.47
2023-10-10T17:15:39.971Z,99690.28
2023-10-10T17:18:32.608Z,99685.41
2023-10-10T17:21:23.259Z,99669.66
2023-10-10T17:24:16.972Z,99657.47
2023-10-10T17:27:08.307Z,99636.59
2023-10-10T17:29:58.895Z,99637.53
2023-10-10T17:32:49.354Z,99641.41
2023-10-10T17:35:42.725Z,99634.00
2023-10-10T17:38:33.544Z,99640.13
2023-10-10T17:41:26.392Z,99620.03
2023-10-10T17:44:18.324Z,99616.50
2023-10-10T17:47:08.822Z,99607.66
2023-10-10T17:50:00.567Z,99607.66
2023-10-10T17:52:50.839Z,99612.91
2023-10-10T17:55:41.412Z,99609.63
2023-10-10T17:58:34.261Z,99612.75
2023-10-10T18:01:25.779Z,99610.41
2023-10-10T18:04:16.733Z,99606.25
2023-10-10T18:07:11.580Z,99614.13
2023-10-10T18:10:01.963Z,99603.22
2023-10-10T18:12:52.280Z,99590.09
2023-10-10T18:15:47.764Z,99601.25
2023-10-10T18:18:38.173Z,99587.22
2023-10-10T18:21:31.266Z,99588.19
2023-10-10T18:24:28.636Z,99589.31
2023-10-10T18:27:20.107Z,99588.63
2023-10-10T18:30:14.159Z,99578.97
2023-10-10T18:33:09.375Z,99570.91
2023-10-10T18:36:00.028Z,99565.41
2023-10-10T18:38:51.325Z,99580.66
2023-10-10T18:41:42.783Z,99572.63
2023-10-10T18:44:33.287Z,99571.31
2023-10-10T18:47:23.652Z,99575.88
2023-10-10T18:50:20.046Z,99568.66
2023-10-10T18:53:10.350Z,99564.91
2023-10-10T18:56:00.909Z,99572.28
2023-10-10T18:58:51.504Z,99563.81
2023-10-10T19:01:45.539Z,99562.16
2023-10-10T19:04:35.953Z,99559.09
2023-10-10T19:07:28.877Z,99572.59
2023-10-10T19:10:19.494Z,99584.34
2023-10-10T19:13:10.541Z,99582.97
2023-10-10T19:16:00.993Z,99570.47
2023-10-10T19:18:51.470Z,99572.09
2023-10-10T19:21:43.192Z,99573.69
2023-10-10T19:24:40.016Z,99562.28
2023-10-10T19:27:30.420Z,99556.13
2023-10-10T19:30:20.872Z,99556.94
2023-10-10T19:33:12.446Z,99546.72
2023-10-10T19:36:09.404Z,99538.16
2023-10-10T19:38:59.810Z,99542.03
2023-10-10T19:41:54.290Z,99545.25
2023-10-10T19:44:44.590Z,99524.00
2023-10-10T19:47:36.889Z,99532.53
2023-10-10T19:50:28.492Z,99526.03
2023-10-10T19:53:20.516Z,99522.59
2023-10-10T19:56:15.498Z,99517.53
2023-10-10T19:59:08.662Z,99514.22
2023-10-10T20:01:58.984Z,99506.81
2023-10-10T20:04:49.450Z,99499.59
2023-10-10T20:07:39.817Z,99500.41
2023-10-10T20:10:30.278Z,99498.28
2023-10-10T20:13:21.351Z,99491.94
2023-10-10T20:16:18.829Z,99490.16
2023-10-10T20:19:09.852Z,99488.09
2023-10-10T20:22:00.153Z,99497.28
2023-10-10T20:24:50.526Z,99490.44
2023-10-10T20:27:40.734Z,99492.59
2023-10-10T20:30:33.721Z,99502.22
2023-10-10T20:33:26.925Z,99487.53
2023-10-10T20:36:17.573Z,99482.19
2023-10-10T20:39:19.729Z,99487.75
2023-10-10T20:42:11.028Z,99484.88
2023-10-10T20:45:01.331Z,99480.88
2023-10-10T20:47:54.285Z,99483.31
2023-10-10T20:50:47.260Z,99485.81
2023-10-10T20:53:37.509Z,99480.63
2023-10-10T20:56:28.857Z,99482.13
2023-10-10T20:59:19.966Z,99484.78
2023-10-10T21:02:12.944Z,99476.72
2023-10-10T21:05:03.196Z,99477.41
2023-10-10T21:07:58.389Z,99477.31
2023-10-10T21:10:51.878Z,99469.63
2023-10-10T21:13:42.269Z,99476.81
2023-10-10T21:16:34.824Z,99476.78
2023-10-10T21:19:27.242Z,99469.53
2023-10-10T21:22:17.483Z,99474.03
2023-10-10T21:25:12.206Z,99461.91
2023-10-10T21:28:04.873Z,99463.34
2023-10-10T21:30:55.350Z,99466.44
2023-10-10T21:33:47.015Z,99458.66
2023-10-10T21:36:37.428Z,99456.91
2023-10-10T21:39:27.643Z,99453.13
2023-10-10T21:42:23.769Z,99447.00
2023-10-10T21:45:15.069Z,99440.88
2023-10-10T21:48:06.398Z,99436.31
2023-10-10T21:50:58.778Z,99442.41
2023-10-10T21:53:50.693Z,99444.50
2023-10-10T21:56:43.285Z,99447.69
2023-10-10T21:59:39.110Z,99447.72
2023-10-10T22:02:29.945Z,99441.03
2023-10-10T22:05:22.884Z,99433.63
2023-10-10T22:08:13.130Z,99431.56
2023-10-10T22:11:03.621Z,99422.91
2023-10-10T22:13:53.960Z,99421.03
2023-10-10T22:16:48.223Z,99419.09
2023-10-10T22:19:38.536Z,99422.91
2023-10-10T22:22:28.767Z,99421.94
2023-10-10T22:25:19.215Z,99434.25
2023-10-10T22:28:11.262Z,99421.25
2023-10-10T22:31:01.548Z,99426.66
2023-10-10T22:33:55.107Z,99425.91
2023-10-10T22:36:52.066Z,99422.81
2023-10-10T22:39:48.824Z,99428.53
2023-10-10T22:42:39.595Z,99419.91
2023-10-10T22:45:29.811Z,99415.00
2023-10-10T22:48:20.102Z,99406.31
2023-10-10T22:51:14.550Z,99421.56
2023-10-10T22:54:07.340Z,99408.34
2023-10-10T22:56:57.890Z,99418.13
2023-10-10T22:59:48.219Z,99409.69
2023-10-10T23:02:38.541Z,99421.94
2023-10-10T23:05:33.140Z,99413.75
2023-10-10T23:08:26.416Z,99412.88
2023-10-10T23:11:18.328Z,99401.16
2023-10-10T23:14:11.128Z,99400.66
2023-10-10T23:17:02.059Z,99398.88
2023-10-10T23:19:52.224Z,99403.94
2023-10-10T23:22:43.358Z,99392.09
2023-10-10T23:25:36.165Z,99385.25
2023-10-10T23:28:26.362Z,99386.94
2023-10-10T23:31:17.713Z,99385.13
2023-10-10T23:34:09.407Z,99398.03
2023-10-10T23:37:00.303Z,99382.97
2023-10-10T23:39:52.625Z,99383.03
2023-10-10T23:42:50.716Z,99376.63
2023-10-10T23:45:43.640Z,99380.63
2023-10-10T23:48:36.205Z,99381.06
2023-10-10T23:51:28.169Z,99389.53
2023-10-10T23:54:18.518Z,99377.53
2023-10-10T23:57:08.787Z,99371.88
